createdAt,value
2022-08-20T07:02:02.354Z,3.63
2022-08-20T07:12:51.240Z,3.72
2022-08-20T07:15:27.213Z,3.42
2022-08-20T07:18:01.204Z,3.03
2022-08-20T07:20:31.911Z,3.63
2022-08-20T07:23:01.402Z,3.25
2022-08-20T07:25:33.725Z,2.85
2022-08-20T07:29:12.410Z,3.28
2022-08-20T07:31:58.330Z,2.97
2022-08-20T07:36:59.776Z,3.17
2022-08-20T07:39:30.034Z,3.15
2022-08-20T07:42:04.290Z,2.70
2022-08-20T07:44:34.547Z,2.85
2022-08-20T07:47:05.667Z,2.83
2022-08-20T07:49:38.336Z,3.13
2022-08-20T07:52:07.834Z,3.30
2022-08-20T07:54:38.250Z,2.90
2022-08-20T07:57:07.117Z,3.03
2022-08-20T07:59:37.729Z,3.45
2022-08-20T08:02:07.490Z,3.25
2022-08-20T08:04:38.771Z,3.00
2022-08-20T08:07:07.989Z,2.50
2022-08-20T08:09:37.416Z,2.45
2022-08-20T08:12:06.530Z,2.67
2022-08-20T08:14:37.407Z,2.30
2022-08-20T08:17:07.377Z,2.40
2022-08-20T08:19:40.013Z,2.30
2022-08-20T08:22:11.602Z,1.77
2022-08-20T09:14:46.334Z,2.70
2022-08-20T09:17:15.213Z,2.40
2022-08-20T09:19:44.013Z,2.95
2022-08-20T09:22:15.660Z,2.60
2022-08-20T09:24:44.734Z,3.10
2022-08-20T09:27:13.515Z,2.75
2022-08-20T09:29:42.523Z,2.97
2022-08-20T09:32:15.627Z,2.80
2022-08-20T09:34:48.771Z,2.83
2022-08-20T09:37:17.729Z,2.92
2022-08-20T09:39:46.461Z,2.80
2022-08-20T09:42:17.519Z,2.90
2022-08-20T09:44:46.556Z,3.50
2022-08-20T09:47:17.454Z,3.03
2022-08-20T09:49:46.694Z,2.90
2022-08-20T09:52:24.613Z,2.97
2022-08-20T09:54:56.216Z,3.10
2022-08-20T09:57:25.334Z,4.25
2022-08-20T09:59:58.481Z,4.20
2022-08-20T10:02:28.811Z,3.55
2022-08-20T10:04:57.687Z,2.88
2022-08-20T10:07:26.347Z,2.60
2022-08-20T10:09:55.088Z,3.08
2022-08-20T10:12:23.807Z,2.80
2022-08-20T10:14:52.574Z,2.70
2022-08-20T10:17:21.296Z,2.47
2022-08-20T10:19:51.454Z,2.42
2022-08-20T10:22:20.132Z,2.42
2022-08-20T10:24:48.961Z,3.03
2022-08-20T10:27:17.649Z,2.47
2022-08-20T10:29:47.109Z,2.15
2022-08-20T10:32:17.534Z,2.58
2022-08-20T10:34:51.169Z,2.53
2022-08-20T10:37:22.115Z,2.50
2022-08-20T10:39:51.161Z,2.75
2022-08-20T10:42:19.850Z,2.83
2022-08-20T10:44:48.614Z,2.50
2022-08-20T10:47:21.254Z,2.55
2022-08-20T10:49:53.195Z,2.50
2022-08-20T10:52:23.159Z,2.50
2022-08-20T10:54:52.834Z,2.08
2022-08-20T10:57:24.133Z,1.80
2022-08-20T10:59:55.614Z,1.70
2022-08-20T11:02:25.325Z,1.80
2022-08-20T11:04:56.407Z,1.30
2022-08-20T11:08:08.471Z,1.63
2022-08-20T11:10:17.987Z,2.05
2022-08-20T11:12:46.794Z,2.40
2022-08-20T11:15:16.317Z,1.92
2022-08-20T11:17:46.136Z,1.60
2022-08-20T11:20:18.432Z,2.08
2022-08-20T11:22:47.533Z,2.10
2022-08-20T11:25:16.452Z,2.00
2022-08-20T11:27:47.678Z,2.28
2022-08-20T11:30:19.833Z,1.80
2022-08-20T11:32:48.529Z,1.73
2022-08-20T11:35:41.712Z,2.03
2022-08-20T11:38:07.764Z,1.95
2022-08-20T11:40:36.777Z,1.70
2022-08-20T11:43:21.068Z,2.10
2022-08-20T11:45:52.455Z,1.60
2022-08-20T11:48:21.572Z,2.08
2022-08-20T11:50:52.813Z,1.98
2022-08-20T11:53:22.368Z,2.15
2022-08-20T11:55:51.514Z,1.95
2022-08-20T11:58:20.252Z,1.60
2022-08-20T12:00:49.474Z,1.35
2022-08-20T12:03:18.267Z,1.50
2022-08-20T12:05:48.361Z,1.38
2022-08-20T12:08:26.759Z,1.10
2022-08-20T12:10:57.710Z,1.17
2022-08-20T12:13:30.644Z,1.10
2022-08-20T12:16:15.477Z,1.13
2022-08-20T12:18:44.315Z,1.10
2022-08-20T12:21:13.133Z,1.00
2022-08-20T12:23:43.251Z,0.90
2022-08-20T12:26:12.170Z,0.85
2022-08-20T12:28:40.953Z,1.10
2022-08-20T12:31:09.734Z,0.80
2022-08-20T12:33:38.590Z,0.70
2022-08-20T12:36:07.594Z,0.80
2022-08-20T12:38:37.314Z,0.80
2022-08-20T12:41:07.789Z,0.85
2022-08-20T12:43:36.514Z,0.70
2022-08-20T12:46:05.369Z,0.88
2022-08-20T12:48:34.069Z,0.60
2022-08-20T12:51:02.841Z,0.70
2022-08-20T12:53:31.533Z,0.57
2022-08-20T12:56:02.573Z,0.60
2022-08-20T12:58:32.629Z,0.80
2022-08-20T13:01:01.415Z,0.70
2022-08-20T13:03:32.155Z,0.50
2022-08-20T13:06:03.245Z,0.57
2022-08-20T13:08:31.909Z,0.60
2022-08-20T13:11:00.638Z,0.70
2022-08-20T13:13:29.314Z,0.50
2022-08-20T13:15:59.487Z,0.80
2022-08-20T13:18:28.127Z,0.73
2022-08-20T13:20:56.859Z,0.57
2022-08-20T13:23:25.557Z,1.17
2022-08-20T13:25:54.295Z,0.70
2022-08-20T13:28:22.970Z,0.80
2022-08-20T13:30:51.853Z,0.88
2022-08-20T13:33:22.030Z,0.60
2022-08-20T13:35:50.852Z,0.75
2022-08-20T13:38:19.536Z,0.70
2022-08-20T13:40:48.965Z,0.75
2022-08-20T13:43:17.950Z,0.80
2022-08-20T13:45:46.677Z,0.70
2022-08-20T13:48:15.495Z,0.70
2022-08-20T13:50:47.180Z,0.70
2022-08-20T13:53:17.280Z,0.68
2022-08-20T13:55:48.412Z,0.60
2022-08-20T13:58:17.571Z,0.75
2022-08-20T14:00:46.991Z,0.57
2022-08-20T14:03:20.011Z,0.68
2022-08-20T14:05:55.795Z,0.60
2022-08-20T14:08:25.449Z,0.75
2022-08-20T14:10:54.392Z,0.73
2022-08-20T14:13:28.123Z,0.80
2022-08-20T14:15:57.709Z,0.65
2022-08-20T14:18:26.370Z,0.70
2022-08-20T14:20:56.512Z,0.50
2022-08-20T14:23:25.283Z,0.70
2022-08-20T14:25:54.069Z,1.00
2022-08-20T14:28:24.649Z,0.80
2022-08-20T14:30:53.845Z,1.00
2022-08-20T14:33:23.732Z,0.80
2022-08-20T14:35:53.346Z,0.90
2022-08-20T14:38:23.612Z,0.82
2022-08-20T14:40:52.494Z,0.90
2022-08-20T14:43:21.201Z,0.80
2022-08-20T14:45:49.962Z,0.90
2022-08-20T14:48:18.613Z,0.90
2022-08-20T14:50:47.406Z,0.73
2022-08-20T14:53:16.047Z,0.98
2022-08-20T14:55:46.196Z,1.00
2022-08-20T14:58:17.105Z,1.23
2022-08-20T15:00:46.085Z,1.10
2022-08-20T15:03:14.809Z,1.10
2022-08-20T15:05:44.004Z,1.05
2022-08-20T15:08:13.072Z,1.02
2022-08-20T15:10:42.098Z,0.88
2022-08-20T15:13:12.353Z,0.80
2022-08-20T15:15:41.770Z,1.00
2022-08-20T15:18:10.630Z,0.90
2022-08-20T15:20:39.529Z,1.23
2022-08-20T15:23:08.634Z,1.00
2022-08-20T15:25:38.435Z,0.90
2022-08-20T15:28:08.819Z,1.05
2022-08-20T15:30:41.835Z,1.10
2022-08-20T15:33:12.113Z,1.00
2022-08-20T15:35:41.056Z,1.00
2022-08-20T15:38:09.895Z,1.00
2022-08-20T15:40:38.913Z,0.90
2022-08-20T15:43:07.675Z,1.17
2022-08-20T15:45:36.932Z,1.00
2022-08-20T15:48:13.810Z,1.00
2022-08-20T15:50:55.689Z,1.45
2022-08-20T15:53:29.334Z,1.08
2022-08-20T15:56:04.712Z,1.15
2022-08-20T16:01:25.185Z,1.35
2022-08-20T16:04:18.929Z,1.33
2022-08-20T16:06:51.507Z,1.20
2022-08-20T16:09:45.914Z,1.00
2022-08-20T16:12:20.920Z,1.17
2022-08-20T16:14:53.049Z,1.27
2022-08-20T16:17:32.074Z,1.10
2022-08-20T16:20:09.037Z,1.10
2022-08-20T16:22:43.165Z,1.00
2022-08-20T16:25:13.649Z,1.30
2022-08-20T16:27:50.953Z,1.20
2022-08-20T16:30:22.576Z,1.58
2022-08-20T16:32:59.975Z,1.25
2022-08-20T16:35:34.888Z,1.33
2022-08-20T16:38:11.292Z,1.45
2022-08-20T16:40:49.706Z,1.38
2022-08-20T16:43:22.691Z,1.42
2022-08-20T16:45:56.811Z,1.40
2022-08-20T16:48:32.732Z,1.15
2022-08-20T16:51:07.652Z,1.30
2022-08-20T16:53:36.934Z,1.35
2022-08-20T16:56:06.688Z,1.20
2022-08-20T16:58:35.433Z,1.77
2022-08-20T17:01:10.570Z,1.20
2022-08-20T17:03:40.923Z,1.42
2022-08-20T17:06:26.993Z,1.00
2022-08-20T17:08:55.892Z,1.23
2022-08-20T17:11:29.194Z,1.35
2022-08-20T17:14:11.787Z,1.20
2022-08-20T17:16:43.895Z,1.38
2022-08-20T17:19:18.612Z,1.23
2022-08-20T17:21:50.838Z,1.83
2022-08-20T17:24:25.362Z,1.33
2022-08-20T17:27:00.993Z,1.25
2022-08-20T17:29:33.121Z,1.40
2022-08-20T17:32:11.880Z,1.30
2022-08-20T17:34:47.128Z,1.30
2022-08-20T17:37:24.204Z,1.30
2022-08-20T17:40:06.108Z,1.90
2022-08-20T17:42:46.148Z,1.15
2022-08-20T17:45:22.854Z,1.15
2022-08-20T17:47:53.188Z,1.15
2022-08-20T17:50:25.453Z,1.20
2022-08-20T17:52:59.596Z,1.40
2022-08-20T17:55:29.361Z,1.52
2022-08-20T17:58:01.089Z,1.30
2022-08-20T18:00:30.125Z,1.75
2022-08-20T18:03:01.867Z,1.20
2022-08-20T18:05:35.227Z,1.23
2022-08-20T18:08:18.351Z,1.15
2022-08-20T18:10:57.448Z,1.35
2022-08-20T18:13:45.064Z,1.20
2022-08-20T18:16:27.494Z,1.30
2022-08-20T18:19:00.769Z,1.20
2022-08-20T18:22:05.453Z,1.17
2022-08-20T18:24:42.252Z,1.95
2022-08-20T18:27:15.171Z,1.10
2022-08-20T18:29:46.707Z,1.05
2022-08-20T18:32:34.078Z,1.20
2022-08-20T18:35:12.846Z,1.50
2022-08-20T18:37:42.074Z,1.38
2022-08-20T18:40:23.409Z,1.10
2022-08-20T18:42:52.119Z,1.23
2022-08-20T18:45:30.131Z,1.35
2022-08-20T18:47:58.929Z,1.02
2022-08-20T18:50:33.470Z,1.00
2022-08-20T18:53:16.937Z,1.20
2022-08-20T18:55:49.094Z,1.33
2022-08-20T18:58:32.451Z,1.63
2022-08-20T19:01:05.854Z,1.27
2022-08-20T19:03:43.085Z,1.60
2022-08-20T19:06:25.805Z,1.27
2022-08-20T19:09:02.151Z,1.45
2022-08-20T19:11:53.691Z,1.50
2022-08-20T19:14:47.968Z,1.10
2022-08-20T19:17:19.693Z,1.80
2022-08-20T19:19:59.451Z,1.63
2022-08-20T19:22:29.291Z,1.55
2022-08-20T19:24:59.786Z,1.50
2022-08-20T19:27:31.413Z,2.08
2022-08-20T19:30:00.140Z,1.50
2022-08-20T19:32:31.405Z,1.83
2022-08-20T19:35:02.125Z,2.20
2022-08-20T19:37:39.671Z,1.63
2022-08-20T19:40:28.327Z,2.10
2022-08-20T19:43:01.686Z,2.00
2022-08-20T19:51:23.412Z,1.83
2022-08-20T19:53:52.210Z,1.70
2022-08-20T19:56:23.411Z,2.03
2022-08-20T19:59:00.755Z,1.50
2022-08-20T20:01:30.237Z,16.45
